Terminal Aerodrome Forecast
Issued by NWS

Home | Current Version | Previous Version | Text Only | Print | Product List | Glossary On
Versions: 1 2 3 4 5 6 7 8 9 10 11 12 13 14 15 16 17 18 19 20 21 22 23 24
000
FTUS46 KSTO 241728
TAFRBL
TAF
KRBL 241728Z 2418/2518 32005KT P6SM SCT250
     FM242200 16005KT P6SM BKN150
     FM250600 32005KT P6SM OVC100
     FM251200 34005KT 6SM -RA BR FEW025 BKN050 OVC070
     FM251400 18007KT 4SM RA BR FEW015 OVC025=

USA.gov is the U.S. government's official web portal to all federal, state and local government web resources and services.